Time;durP1;ratioP1;P1;durP2;ratioP2;P2;SDS_P1;SDS_P2;PMS_P1;PMS_P2;Temp;Humidity;BMP_temperature;BMP_pressure;BME280_temperature;BME280_humidity;BME280_pressure;Samples;Min_cycle;Max_cycle;Signal;HPM_P1;HPM_P2
2023/04/10 00:00:08;;;;;;;7.07;4.40;;;4.80;97.30;;;;;;4942840;28;20427;-88
2023/04/10 00:02:35;;;;;;;7.37;5.37;;;4.80;97.30;;;;;;4933489;29;20419;-88
2023/04/10 00:05:01;;;;;;;8.43;4.97;;;4.80;97.30;;;;;;4937075;29;20428;-88
2023/04/10 00:07:27;;;;;;;6.77;3.60;;;4.70;97.30;;;;;;4937426;29;20499;-88
2023/04/10 00:09:53;;;;;;;7.57;4.90;;;4.70;97.30;;;;;;4938538;29;20770;-88
2023/04/10 00:12:18;;;;;;;5.60;5.30;;;4.70;97.30;;;;;;4933287;29;20590;-88
2023/04/10 00:14:44;;;;;;;9.60;5.47;;;4.60;97.30;;;;;;4931310;29;20220;-89
2023/04/10 00:17:09;;;;;;;7.73;4.67;;;4.60;97.30;;;;;;4939829;29;20211;-87
2023/04/10 00:19:37;;;;;;;10.03;5.40;;;4.50;97.30;;;;;;4931325;29;20645;-88
2023/04/10 00:22:03;;;;;;;6.70;4.27;;;4.50;97.30;;;;;;4940261;29;20242;-89
2023/04/10 00:24:29;;;;;;;14.00;6.10;;;4.50;97.30;;;;;;4929669;29;20527;-88
2023/04/10 00:26:56;;;;;;;5.30;5.00;;;4.40;97.30;;;;;;4929857;29;20479;-89
2023/04/10 00:29:21;;;;;;;3.60;2.60;;;4.40;97.30;;;;;;4935521;29;20287;-88
2023/04/10 00:31:47;;;;;;;5.37;5.07;;;4.40;97.30;;;;;;4938245;29;20526;-89
2023/04/10 00:34:13;;;;;;;19.80;7.40;;;4.30;97.30;;;;;;4939807;29;20184;-88
2023/04/10 00:36:39;;;;;;;4.00;3.80;;;4.30;97.30;;;;;;4937953;29;20455;-88
2023/04/10 00:39:05;;;;;;;16.33;5.87;;;4.30;97.30;;;;;;4934480;29;20180;-88
2023/04/10 00:41:31;;;;;;;5.83;3.67;;;4.30;97.30;;;;;;4935404;29;20295;-88
2023/04/10 00:43:57;;;;;;;9.80;6.70;;;4.20;97.30;;;;;;4932330;29;20462;-88
2023/04/10 00:46:23;;;;;;;3.80;2.70;;;4.20;97.30;;;;;;4937582;29;20711;-88
2023/04/10 00:48:51;;;;;;;7.53;5.60;;;4.10;97.30;;;;;;4938077;29;20211;-88
2023/04/10 00:51:19;;;;;;;13.00;6.00;;;4.10;97.30;;;;;;4961163;28;20517;-88
2023/04/10 00:53:49;;;;;;;16.27;6.27;;;4.00;97.30;;;;;;4952595;28;20428;-88
2023/04/10 00:56:17;;;;;;;12.63;7.80;;;4.00;97.30;;;;;;4927204;29;20459;-88
2023/04/10 00:58:42;;;;;;;29.07;10.90;;;4.00;97.30;;;;;;4935686;29;20676;-88
2023/04/10 01:01:08;;;;;;;29.90;14.13;;;3.90;97.30;;;;;;4946372;28;20887;-88
2023/04/10 01:03:34;;;;;;;20.13;12.90;;;3.90;97.30;;;;;;4949381;29;20585;-88
2023/04/10 01:06:10;;;;;;;16.27;10.27;;;3.90;97.30;;;;;;4926093;29;20263;-88
2023/04/10 01:08:53;;;;;;;19.97;8.67;;;3.90;97.30;;;;;;4935926;29;20947;-87
2023/04/10 01:11:26;;;;;;;11.63;7.27;;;3.90;97.30;;;;;;4924374;29;20447;-88
2023/04/10 01:14:10;;;;;;;9.00;6.90;;;3.90;97.30;;;;;;4946617;28;20412;-88
2023/04/10 01:16:48;;;;;;;3.50;3.23;;;3.80;97.30;;;;;;4935634;29;20451;-86
2023/04/10 01:19:41;;;;;;;8.80;4.37;;;3.80;97.30;;;;;;4943397;29;20426;-86
2023/04/10 01:22:10;;;;;;;6.83;4.70;;;3.70;97.30;;;;;;4949772;28;20835;-87
2023/04/10 01:24:46;;;;;;;7.73;5.50;;;3.70;97.30;;;;;;4940162;29;20955;-86
2023/04/10 01:27:39;;;;;;;10.20;5.03;;;3.70;97.30;;;;;;4955767;28;20427;-88
2023/04/10 01:30:07;;;;;;;6.20;5.00;;;3.70;97.30;;;;;;4942985;29;20424;-88
2023/04/10 01:32:35;;;;;;;10.90;5.73;;;3.60;97.30;;;;;;4943616;29;20474;-88
2023/04/10 01:35:05;;;;;;;6.70;4.73;;;3.60;97.30;;;;;;4944661;29;20452;-89
2023/04/10 01:37:33;;;;;;;13.80;5.20;;;3.60;97.30;;;;;;4949718;28;20498;-90
2023/04/10 01:40:08;;;;;;;6.47;4.57;;;3.60;97.30;;;;;;4935429;29;20971;-87
2023/04/10 01:42:42;;;;;;;8.33;5.00;;;3.60;97.30;;;;;;4928380;29;20530;-88
2023/04/10 01:45:16;;;;;;;5.20;4.90;;;3.60;97.30;;;;;;4929781;29;21068;-88
2023/04/10 01:47:42;;;;;;;6.80;4.67;;;3.50;97.30;;;;;;4955737;28;20439;-88
2023/04/10 01:50:09;;;;;;;17.77;4.53;;;3.50;97.30;;;;;;4933165;29;20439;-88
2023/04/10 01:52:38;;;;;;;4.47;4.17;;;3.50;97.30;;;;;;4934805;29;20494;-88
2023/04/10 01:55:06;;;;;;;9.70;4.50;;;3.50;97.30;;;;;;4944535;29;20986;-87
2023/04/10 01:57:34;;;;;;;9.83;5.60;;;3.40;97.30;;;;;;4939399;29;20573;-87
2023/04/10 02:00:00;;;;;;;13.40;5.67;;;3.40;97.30;;;;;;4932841;29;20420;-88
2023/04/10 02:02:32;;;;;;;4.67;4.37;;;3.40;97.30;;;;;;4932009;29;20452;-87
2023/04/10 02:04:58;;;;;;;11.60;6.80;;;3.30;97.30;;;;;;4944873;28;20227;-88
2023/04/10 02:07:28;;;;;;;5.33;5.03;;;3.30;97.30;;;;;;4937309;28;20459;-88
2023/04/10 02:10:00;;;;;;;8.43;4.63;;;3.30;97.30;;;;;;4934892;28;20439;-88
2023/04/10 02:12:35;;;;;;;12.20;6.03;;;3.20;97.30;;;;;;4925861;29;20535;-88
2023/04/10 02:15:04;;;;;;;5.97;5.67;;;3.20;97.30;;;;;;4945993;29;20539;-89
2023/04/10 02:17:30;;;;;;;12.73;6.10;;;3.20;97.30;;;;;;4929811;29;20508;-88
2023/04/10 02:19:57;;;;;;;6.17;4.43;;;3.20;97.30;;;;;;4938832;29;20511;-88
2023/04/10 02:22:27;;;;;;;7.00;6.60;;;3.10;97.30;;;;;;4922560;29;21017;-88
2023/04/10 02:24:53;;;;;;;6.93;4.47;;;3.10;97.30;;;;;;4949893;29;20964;-89
2023/04/10 02:27:33;;;;;;;8.83;5.03;;;3.10;97.30;;;;;;4942255;29;20430;-88
2023/04/10 02:30:00;;;;;;;7.77;5.23;;;3.10;97.30;;;;;;4955555;28;20783;-88
2023/04/10 02:32:26;;;;;;;10.47;6.80;;;3.10;97.30;;;;;;4933991;29;20478;-88
2023/04/10 02:34:51;;;;;;;18.60;6.70;;;3.10;97.30;;;;;;4934219;29;20574;-88
2023/04/10 02:37:17;;;;;;;12.90;8.47;;;3.10;97.30;;;;;;4948595;29;20504;-87
2023/04/10 02:39:44;;;;;;;8.60;6.40;;;3.10;97.30;;;;;;4949028;28;20180;-88
2023/04/10 02:42:10;;;;;;;9.80;6.40;;;3.10;97.30;;;;;;4940521;29;20712;-88
2023/04/10 02:44:38;;;;;;;8.87;4.83;;;3.10;97.30;;;;;;4925168;29;20423;-88
2023/04/10 02:47:04;;;;;;;6.50;5.53;;;3.10;97.30;;;;;;4932991;29;20672;-88
2023/04/10 02:49:30;;;;;;;8.30;6.60;;;3.10;97.30;;;;;;4948107;29;20443;-88
2023/04/10 02:51:56;;;;;;;9.13;3.87;;;3.10;97.30;;;;;;4928489;29;20432;-88
2023/04/10 02:54:21;;;;;;;16.37;5.43;;;3.10;97.30;;;;;;4958387;28;20230;-86
2023/04/10 02:56:47;;;;;;;11.90;6.43;;;3.10;97.30;;;;;;4948717;28;20260;-87
2023/04/10 02:59:12;;;;;;;3.23;3.07;;;3.10;97.30;;;;;;4934273;29;20267;-88
2023/04/10 03:01:38;;;;;;;12.00;4.90;;;3.00;97.30;;;;;;4925365;29;20251;-86
2023/04/10 03:04:06;;;;;;;12.00;6.00;;;3.00;97.30;;;;;;4933820;29;20199;-88
2023/04/10 03:06:34;;;;;;;6.40;4.07;;;3.00;97.30;;;;;;4932641;29;20625;-88
2023/04/10 03:09:00;;;;;;;11.23;5.50;;;2.90;97.30;;;;;;4920623;29;20427;-88
2023/04/10 03:11:29;;;;;;;9.50;5.30;;;2.90;97.30;;;;;;4931872;29;20443;-88
2023/04/10 03:13:57;;;;;;;12.07;7.67;;;2.80;97.30;;;;;;4934327;29;20180;-88
2023/04/10 03:16:23;;;;;;;10.67;5.00;;;2.80;97.30;;;;;;4933774;29;20463;-88
2023/04/10 03:18:48;;;;;;;17.07;6.83;;;2.80;97.30;;;;;;4934404;29;20430;-88
2023/04/10 03:21:14;;;;;;;14.77;5.10;;;2.80;97.30;;;;;;4935370;29;20463;-88
2023/04/10 03:23:40;;;;;;;15.60;4.77;;;2.80;97.30;;;;;;4940863;29;20175;-88
2023/04/10 03:26:06;;;;;;;8.67;4.87;;;2.80;97.30;;;;;;4927335;29;20594;-88
2023/04/10 03:28:32;;;;;;;5.83;3.97;;;2.70;97.30;;;;;;4932523;29;20247;-88
2023/04/10 03:30:57;;;;;;;10.57;8.13;;;2.70;97.30;;;;;;4929741;29;20708;-88
2023/04/10 03:33:23;;;;;;;5.77;4.00;;;2.70;97.30;;;;;;4945578;29;20434;-88
2023/04/10 03:35:49;;;;;;;7.43;4.07;;;2.70;97.30;;;;;;4936766;29;20283;-89
2023/04/10 03:38:14;;;;;;;8.47;5.20;;;2.60;97.30;;;;;;4940662;29;20215;-89
2023/04/10 03:40:40;;;;;;;9.47;4.63;;;2.60;97.30;;;;;;4930064;29;20195;-89
2023/04/10 03:43:05;;;;;;;13.90;4.50;;;2.60;97.30;;;;;;4931906;29;20185;-88
2023/04/10 03:45:31;;;;;;;5.33;3.30;;;2.50;97.30;;;;;;4940289;29;20259;-88
2023/04/10 03:47:57;;;;;;;12.00;5.77;;;2.40;97.30;;;;;;4939297;29;20183;-88
2023/04/10 03:50:22;;;;;;;4.77;3.67;;;2.40;97.30;;;;;;4931748;29;20239;-88
2023/04/10 03:52:51;;;;;;;10.13;5.13;;;2.50;97.30;;;;;;4952050;29;20470;-88
2023/04/10 03:55:19;;;;;;;10.50;4.73;;;2.40;97.30;;;;;;4938631;29;20184;-88
2023/04/10 03:57:46;;;;;;;5.50;4.33;;;2.40;97.30;;;;;;4928913;29;20463;-88
2023/04/10 04:00:13;;;;;;;9.63;3.70;;;2.40;97.30;;;;;;4930010;29;20475;-90
2023/04/10 04:02:38;;;;;;;12.20;7.27;;;2.40;97.30;;;;;;4927900;29;20451;-88
2023/04/10 04:05:04;;;;;;;10.10;5.13;;;2.40;97.30;;;;;;4936195;29;20759;-88
2023/04/10 04:07:30;;;;;;;4.27;4.00;;;2.40;97.30;;;;;;4942359;29;20692;-88
2023/04/10 04:09:56;;;;;;;5.53;3.80;;;2.40;97.30;;;;;;4937053;29;20560;-88
2023/04/10 04:12:21;;;;;;;6.17;5.23;;;2.40;97.30;;;;;;4931516;29;20211;-88
2023/04/10 04:14:47;;;;;;;4.47;4.13;;;;;;;;;;4936202;29;20428;-88
2023/04/10 04:17:13;;;;;;;12.87;5.60;;;;;;;;;;4936651;29;20603;-88
2023/04/10 04:19:39;;;;;;;5.60;4.30;;;2.40;97.30;;;;;;4937378;29;20415;-88
2023/04/10 04:22:04;;;;;;;7.73;6.00;;;2.40;97.30;;;;;;4941777;29;20516;-89
2023/04/10 04:24:30;;;;;;;11.03;4.30;;;2.30;97.30;;;;;;4931846;29;20236;-88
2023/04/10 04:26:58;;;;;;;9.27;5.20;;;2.30;97.30;;;;;;4935300;28;20231;-88
2023/04/10 04:29:47;;;;;;;5.53;5.23;;;2.30;97.30;;;;;;4937860;29;20683;-89
2023/04/10 04:32:17;;;;;;;8.33;7.23;;;2.30;97.30;;;;;;4930844;29;20453;-88
2023/04/10 04:34:59;;;;;;;8.87;3.47;;;;;;;;;;4933812;29;20428;-88
2023/04/10 04:37:27;;;;;;;9.40;4.97;;;2.30;97.30;;;;;;4944786;29;20466;-88
2023/04/10 04:39:55;;;;;;;5.20;4.90;;;;;;;;;;4936210;29;20432;-89
2023/04/10 04:42:21;;;;;;;6.77;6.00;;;2.20;97.30;;;;;;4940077;29;20528;-88
2023/04/10 04:44:47;;;;;;;5.87;5.37;;;2.20;97.30;;;;;;4940484;29;20513;-88
2023/04/10 04:47:13;;;;;;;7.70;5.50;;;2.20;97.30;;;;;;4926326;29;20183;-89
2023/04/10 04:49:38;;;;;;;5.50;3.23;;;2.20;97.30;;;;;;4936914;29;20428;-88
2023/04/10 04:52:14;;;;;;;;;;;;;;;;;;;;;
2023/04/10 04:54:40;;;;;;;4.93;4.63;;;2.20;97.30;;;;;;4940635;29;20189;-88
2023/04/10 04:57:06;;;;;;;9.03;6.00;;;2.20;97.30;;;;;;4930930;29;20546;-88
2023/04/10 04:59:31;;;;;;;6.47;4.50;;;2.20;97.30;;;;;;4929614;29;20203;-88
2023/04/10 05:01:57;;;;;;;10.43;7.93;;;2.20;97.30;;;;;;4934625;29;20444;-88
2023/04/10 05:04:25;;;;;;;11.90;5.80;;;2.30;97.30;;;;;;4947084;29;20278;-88
2023/04/10 05:06:50;;;;;;;7.33;3.00;;;2.40;97.30;;;;;;4956827;28;20342;-88
2023/04/10 05:09:18;;;;;;;11.80;5.97;;;2.40;97.30;;;;;;4950444;28;20432;-88
2023/04/10 05:11:44;;;;;;;12.60;4.40;;;2.50;97.30;;;;;;4947646;29;20204;-88
2023/04/10 05:14:10;;;;;;;6.70;4.60;;;2.60;97.30;;;;;;4941284;29;20430;-88
2023/04/10 05:16:37;;;;;;;6.77;4.13;;;2.60;97.30;;;;;;4924593;29;20210;-89
2023/04/10 05:19:03;;;;;;;10.33;6.00;;;2.70;97.30;;;;;;4934722;29;20200;-89
2023/04/10 05:21:28;;;;;;;8.43;4.77;;;2.80;97.30;;;;;;4938300;29;20889;-88
2023/04/10 05:23:54;;;;;;;20.43;6.33;;;2.80;97.30;;;;;;4947899;29;20270;-88
2023/04/10 05:26:19;;;;;;;23.43;10.83;;;2.90;97.30;;;;;;4936671;29;20215;-88
2023/04/10 05:28:45;;;;;;;21.20;12.47;;;3.00;97.30;;;;;;4945837;29;20192;-88
2023/04/10 05:31:10;;;;;;;15.13;7.00;;;3.00;97.30;;;;;;4931727;29;20732;-88
2023/04/10 05:33:36;;;;;;;7.90;4.83;;;3.10;97.30;;;;;;4948242;29;20222;-90
2023/04/10 05:36:02;;;;;;;10.87;7.10;;;3.10;97.30;;;;;;4950194;28;20578;-88
2023/04/10 05:38:27;;;;;;;18.03;7.03;;;3.10;97.30;;;;;;4930030;29;20190;-88
2023/04/10 05:40:53;;;;;;;6.97;6.00;;;3.20;97.30;;;;;;4934238;29;20291;-88
2023/04/10 05:43:20;;;;;;;14.13;8.77;;;3.30;97.30;;;;;;4945784;29;20187;-89
2023/04/10 05:45:46;;;;;;;9.63;6.70;;;3.40;97.30;;;;;;4933950;29;20426;-88
2023/04/10 05:48:11;;;;;;;5.70;5.23;;;3.50;97.30;;;;;;4935725;29;20552;-88
2023/04/10 05:50:38;;;;;;;12.97;5.90;;;3.60;97.30;;;;;;4919258;29;20223;-88
2023/04/10 05:53:03;;;;;;;9.53;6.17;;;3.70;97.30;;;;;;4935678;29;20430;-87
2023/04/10 05:55:32;;;;;;;25.90;9.20;;;3.80;97.30;;;;;;4936308;29;20182;-89
2023/04/10 05:57:57;;;;;;;12.47;11.70;;;3.90;97.30;;;;;;4936479;29;20219;-89
2023/04/10 06:00:26;;;;;;;17.13;10.57;;;4.00;97.30;;;;;;4948397;29;20428;-90
2023/04/10 06:02:54;;;;;;;19.57;10.93;;;4.10;97.30;;;;;;4946905;29;20183;-88
2023/04/10 06:05:20;;;;;;;13.80;6.53;;;4.20;97.30;;;;;;4946611;29;20439;-89
2023/04/10 06:07:48;;;;;;;12.93;6.67;;;4.30;97.30;;;;;;4947722;29;20423;-89
2023/04/10 06:10:15;;;;;;;16.23;9.17;;;4.40;97.30;;;;;;4941392;29;20270;-88
2023/04/10 06:12:46;;;;;;;17.07;6.60;;;4.60;97.30;;;;;;4928170;29;20426;-89
2023/04/10 06:15:17;;;;;;;7.80;5.20;;;4.70;97.30;;;;;;4940597;29;20916;-89
2023/04/10 06:17:50;;;;;;;14.03;6.53;;;4.80;97.30;;;;;;4939429;29;20730;-89
2023/04/10 06:20:19;;;;;;;15.73;9.07;;;4.90;97.30;;;;;;4948851;28;20419;-84
2023/04/10 06:22:47;;;;;;;6.47;5.93;;;5.10;97.30;;;;;;4938285;29;20895;-89
2023/04/10 06:25:15;;;;;;;19.93;6.60;;;5.20;97.30;;;;;;4937682;29;20426;-89
2023/04/10 06:27:40;;;;;;;12.33;6.97;;;5.30;97.30;;;;;;4942717;29;20478;-88
2023/04/10 06:30:10;;;;;;;6.83;3.47;;;5.40;97.30;;;;;;4935389;29;20443;-88
2023/04/10 06:32:35;;;;;;;4.63;4.33;;;5.50;97.30;;;;;;4935535;29;20656;-89
2023/04/10 06:35:01;;;;;;;10.23;5.27;;;5.60;97.30;;;;;;4931529;29;20433;-89
2023/04/10 06:37:31;;;;;;;12.37;5.70;;;5.60;97.30;;;;;;4932626;29;20203;-89
2023/04/10 06:40:08;;;;;;;13.03;7.53;;;5.80;97.30;;;;;;4943252;29;20180;-87
2023/04/10 06:42:37;;;;;;;11.40;8.07;;;5.90;97.30;;;;;;4949131;29;20423;-88
2023/04/10 06:45:03;;;;;;;8.37;4.87;;;6.00;97.30;;;;;;4933086;29;20458;-89
2023/04/10 06:47:30;;;;;;;5.83;4.70;;;6.20;97.30;;;;;;4941243;29;20436;-88
2023/04/10 06:49:56;;;;;;;6.67;4.43;;;6.40;97.30;;;;;;4936969;29;20511;-88
2023/04/10 06:52:22;;;;;;;5.77;5.07;;;6.60;97.30;;;;;;4945226;29;20541;-88
2023/04/10 06:54:47;;;;;;;15.50;7.70;;;6.80;97.30;;;;;;4940624;29;20188;-89
2023/04/10 06:57:13;;;;;;;13.83;5.83;;;6.90;97.30;;;;;;4937441;29;20207;-87
2023/04/10 06:59:38;;;;;;;17.67;6.70;;;7.10;97.30;;;;;;4941507;29;20198;-88
2023/04/10 07:02:04;;;;;;;5.77;4.13;;;7.20;97.30;;;;;;4945447;29;20631;-89
2023/04/10 07:04:30;;;;;;;7.67;3.80;;;7.40;97.30;;;;;;4937964;29;20704;-89
2023/04/10 07:06:58;;;;;;;9.30;6.53;;;7.60;97.30;;;;;;4947972;29;20271;-87
2023/04/10 07:09:28;;;;;;;3.90;3.40;;;7.80;97.30;;;;;;4930816;29;20433;-88
2023/04/10 07:11:54;;;;;;;14.27;6.40;;;8.00;97.30;;;;;;4930313;29;20448;-88
2023/04/10 07:14:20;;;;;;;29.47;6.37;;;8.10;97.30;;;;;;4947713;29;20430;-88
2023/04/10 07:16:48;;;;;;;4.07;3.33;;;8.30;97.30;;;;;;4951804;29;20254;-88
2023/04/10 07:19:18;;;;;;;11.63;6.60;;;8.40;97.30;;;;;;4938537;29;20179;-88
2023/04/10 07:21:49;;;;;;;6.03;5.73;;;8.60;97.30;;;;;;4931598;29;20474;-89
2023/04/10 07:24:22;;;;;;;7.10;4.20;;;8.90;97.30;;;;;;4933672;29;20416;-88
2023/04/10 07:26:47;;;;;;;10.00;4.13;;;9.10;97.30;;;;;;4958003;28;20427;-88
2023/04/10 07:29:20;;;;;;;5.60;3.93;;;9.20;97.30;;;;;;4952050;29;20450;-88
2023/04/10 07:31:48;;;;;;;5.73;4.77;;;9.40;97.30;;;;;;4939557;29;20258;-89
2023/04/10 07:34:19;;;;;;;9.60;5.50;;;9.60;97.30;;;;;;4949084;29;21103;-88
2023/04/10 07:36:44;;;;;;;5.00;4.70;;;9.70;97.30;;;;;;4946762;29;20463;-89
2023/04/10 07:39:09;;;;;;;13.87;4.80;;;9.80;97.30;;;;;;4943739;29;20438;-88
2023/04/10 07:41:35;;;;;;;7.13;6.30;;;9.90;97.30;;;;;;4953960;29;20206;-88
2023/04/10 07:44:01;;;;;;;5.40;4.10;;;10.00;97.30;;;;;;4958575;28;20224;-89
2023/04/10 07:46:26;;;;;;;3.67;3.47;;;10.20;97.30;;;;;;4944090;29;20243;-90
2023/04/10 07:48:53;;;;;;;6.43;3.70;;;10.30;97.30;;;;;;4958692;28;20251;-89
2023/04/10 07:51:19;;;;;;;14.60;4.33;;;10.40;97.30;;;;;;4946914;29;20353;-89
2023/04/10 07:53:47;;;;;;;8.53;3.30;;;10.50;97.00;;;;;;4933920;29;20420;-89
2023/04/10 07:56:18;;;;;;;8.30;6.50;;;10.70;97.30;;;;;;4948011;29;20514;-89
2023/04/10 07:58:43;;;;;;;10.93;4.53;;;10.90;97.30;;;;;;4946888;29;20436;-88
2023/04/10 08:01:09;;;;;;;14.87;6.47;;;11.10;96.60;;;;;;4955568;28;20502;-89
2023/04/10 08:03:39;;;;;;;7.23;5.27;;;11.20;96.20;;;;;;4938943;29;20186;-88
2023/04/10 08:06:08;;;;;;;18.70;5.80;;;11.30;95.50;;;;;;4941102;29;20182;-89
2023/04/10 08:08:37;;;;;;;11.97;6.90;;;11.40;95.20;;;;;;4931671;29;20420;-89
2023/04/10 08:11:20;;;;;;;5.90;3.83;;;11.50;96.00;;;;;;4937379;29;20616;-89
2023/04/10 08:13:45;;;;;;;7.63;5.30;;;11.60;94.70;;;;;;4935890;29;20487;-88
2023/04/10 08:16:11;;;;;;;13.13;5.60;;;11.90;95.30;;;;;;4930857;29;20458;-89
2023/04/10 08:18:38;;;;;;;12.10;6.00;;;12.00;94.10;;;;;;4937855;29;20188;-89
2023/04/10 08:21:11;;;;;;;11.80;6.83;;;12.10;93.10;;;;;;4950678;29;20211;-89
2023/04/10 08:23:37;;;;;;;7.13;5.63;;;12.20;92.80;;;;;;4936065;29;20427;-89
2023/04/10 08:26:05;;;;;;;8.40;4.10;;;12.30;92.70;;;;;;4934421;29;20951;-89
2023/04/10 08:28:31;;;;;;;16.63;8.43;;;12.50;92.40;;;;;;4935901;29;20677;-89
2023/04/10 08:30:59;;;;;;;13.70;7.93;;;12.60;93.00;;;;;;4937131;29;20432;-88
2023/04/10 08:33:26;;;;;;;16.50;7.00;;;12.80;92.70;;;;;;4941838;29;20832;-88
2023/04/10 08:35:54;;;;;;;6.10;4.50;;;12.80;92.40;;;;;;4955186;28;21182;-88
2023/04/10 08:38:22;;;;;;;5.37;3.97;;;12.90;93.00;;;;;;4948552;29;20447;-89
2023/04/10 08:40:48;;;;;;;11.10;6.30;;;13.00;92.70;;;;;;4935645;29;20919;-88
2023/04/10 08:43:13;;;;;;;10.73;5.03;;;13.30;92.20;;;;;;4937711;29;20618;-89
2023/04/10 08:45:44;;;;;;;7.30;3.93;;;13.50;89.70;;;;;;4934138;29;20184;-89
2023/04/10 08:48:11;;;;;;;3.47;3.27;;;13.50;89.70;;;;;;4937849;29;20188;-89
2023/04/10 08:50:42;;;;;;;8.03;6.30;;;13.60;89.80;;;;;;4937378;29;21008;-88
2023/04/10 08:53:12;;;;;;;5.40;4.63;;;13.80;88.10;;;;;;4939343;29;20429;-91
2023/04/10 08:55:40;;;;;;;9.30;4.20;;;13.90;87.00;;;;;;4947720;29;20438;-88
2023/04/10 08:58:06;;;;;;;11.23;6.00;;;14.00;87.70;;;;;;4925301;29;20544;-87
2023/04/10 09:00:37;;;;;;;7.80;4.17;;;14.10;86.20;;;;;;4934104;29;20448;-89
2023/04/10 09:03:07;;;;;;;19.13;6.00;;;14.20;87.00;;;;;;4940932;29;20427;-89
2023/04/10 09:05:34;;;;;;;9.10;5.10;;;14.20;87.70;;;;;;4938242;29;20429;-89
2023/04/10 09:07:59;;;;;;;7.50;5.60;;;14.30;86.40;;;;;;4933468;29;20789;-88
2023/04/10 09:10:25;;;;;;;9.03;4.23;;;14.40;86.20;;;;;;4941149;29;20439;-89
2023/04/10 09:12:51;;;;;;;15.53;6.73;;;14.40;85.20;;;;;;4939315;29;20191;-88
2023/04/10 09:15:16;;;;;;;11.90;5.37;;;14.40;85.30;;;;;;4947001;29;20561;-88
2023/04/10 09:17:55;;;;;;;6.53;4.77;;;14.50;86.50;;;;;;4938256;29;20475;-88
2023/04/10 09:20:22;;;;;;;6.50;3.60;;;14.60;84.70;;;;;;4937046;29;20179;-89
2023/04/10 09:22:48;;;;;;;8.13;4.90;;;14.70;85.20;;;;;;4933051;29;20491;-89
2023/04/10 09:25:32;;;;;;;5.23;3.63;;;14.80;85.90;;;;;;4930685;29;20563;-88
2023/04/10 09:28:08;;;;;;;10.77;5.00;;;14.90;85.10;;;;;;4951958;28;20568;-88
2023/04/10 09:30:40;;;;;;;9.53;5.73;;;15.00;84.60;;;;;;4935290;29;20439;-90
2023/04/10 09:33:35;;;;;;;9.80;4.87;;;14.90;85.10;;;;;;4949513;28;20432;-89
2023/04/10 09:36:02;;;;;;;13.87;5.97;;;15.10;87.10;;;;;;4932339;29;20428;-89
2023/04/10 09:38:28;;;;;;;8.80;5.07;;;15.30;86.20;;;;;;4949927;28;20704;-89
2023/04/10 09:41:05;;;;;;;9.47;5.80;;;;;;;;;;4923947;29;20495;-89
2023/04/10 09:43:31;;;;;;;10.33;5.43;;;15.60;84.80;;;;;;4943533;28;20494;-88
2023/04/10 09:45:56;;;;;;;28.83;7.23;;;15.70;86.00;;;;;;4938312;29;20860;-88
2023/04/10 09:48:26;;;;;;;8.47;5.60;;;15.60;85.10;;;;;;4925825;29;20177;-89
2023/04/10 09:50:51;;;;;;;14.07;4.80;;;15.60;85.50;;;;;;4925980;29;20250;-88
2023/04/10 09:53:18;;;;;;;12.93;5.57;;;15.60;85.10;;;;;;4934996;29;20419;-89
2023/04/10 09:55:48;;;;;;;13.60;6.20;;;15.50;84.20;;;;;;4927897;29;20184;-89
2023/04/10 09:58:17;;;;;;;11.20;4.47;;;15.60;86.00;;;;;;4942795;29;20467;-88
2023/04/10 10:00:47;;;;;;;14.80;6.10;;;15.80;86.20;;;;;;4934973;29;20959;-88
2023/04/10 10:03:15;;;;;;;12.60;6.10;;;15.90;85.20;;;;;;4941327;29;20428;-88
2023/04/10 10:05:46;;;;;;;17.77;7.90;;;16.00;83.70;;;;;;4942412;29;20411;-88
2023/04/10 10:08:13;;;;;;;5.73;5.43;;;;;;;;;;4934370;29;20447;-90
2023/04/10 10:10:45;;;;;;;12.90;5.57;;;16.00;83.30;;;;;;4940387;29;20439;-88
2023/04/10 10:13:17;;;;;;;10.03;3.93;;;16.10;83.80;;;;;;4923120;29;20440;-88
2023/04/10 10:15:50;;;;;;;7.10;3.53;;;;;;;;;;4921309;29;20470;-89
2023/04/10 10:18:40;;;;;;;4.30;3.00;;;16.20;82.70;;;;;;4943385;28;20467;-88
2023/04/10 10:21:08;;;;;;;6.10;3.73;;;16.30;83.00;;;;;;4934965;29;20518;-89
2023/04/10 10:23:35;;;;;;;6.20;3.50;;;16.40;82.40;;;;;;4947175;29;20809;-89
2023/04/10 10:26:06;;;;;;;5.20;3.77;;;16.60;82.50;;;;;;4932774;28;20497;-89
2023/04/10 10:28:33;;;;;;;5.17;3.87;;;16.70;81.90;;;;;;4938166;29;21062;-88
2023/04/10 10:30:59;;;;;;;4.27;3.93;;;16.60;80.50;;;;;;4942461;29;20439;-88
2023/04/10 10:33:26;;;;;;;3.93;3.17;;;16.60;82.00;;;;;;4942146;29;20839;-89
2023/04/10 10:35:52;;;;;;;4.10;2.83;;;16.40;80.10;;;;;;4936570;29;20491;-88
2023/04/10 10:38:18;;;;;;;4.93;2.70;;;16.40;80.90;;;;;;4928866;29;21087;-88
2023/04/10 10:41:09;;;;;;;5.53;3.30;;;16.40;80.40;;;;;;4933668;29;20815;-88
2023/04/10 10:43:36;;;;;;;3.80;3.50;;;16.50;81.20;;;;;;4942005;29;20183;-88
2023/04/10 10:46:05;;;;;;;5.80;3.67;;;16.70;80.60;;;;;;4940516;29;20424;-88
2023/04/10 10:48:30;;;;;;;4.87;3.80;;;16.70;82.20;;;;;;4923906;29;20416;-88
2023/04/10 10:50:58;;;;;;;6.40;3.40;;;16.80;81.00;;;;;;4944993;28;20434;-88
2023/04/10 10:53:44;;;;;;;4.90;3.27;;;16.80;80.00;;;;;;4935268;29;20283;-88
2023/04/10 10:56:18;;;;;;;9.53;3.90;;;16.60;80.70;;;;;;4954666;28;20430;-88
2023/04/10 10:58:49;;;;;;;5.77;5.40;;;16.70;80.30;;;;;;4931924;29;20940;-88
2023/04/10 11:01:15;;;;;;;7.53;3.77;;;16.90;81.00;;;;;;4942514;29;20719;-89
2023/04/10 11:03:43;;;;;;;21.20;11.80;;;17.10;80.90;;;;;;4927383;29;20615;-88
2023/04/10 11:06:11;;;;;;;7.03;5.30;;;17.20;80.00;;;;;;4939363;29;20427;-88
2023/04/10 11:08:45;;;;;;;6.67;3.20;;;17.20;80.40;;;;;;4949409;29;20833;-88
2023/04/10 11:11:23;;;;;;;8.30;4.37;;;17.30;79.30;;;;;;4930610;29;20829;-87
2023/04/10 11:13:51;;;;;;;3.63;3.50;;;17.30;80.00;;;;;;4936145;29;20502;-88
2023/04/10 11:16:21;;;;;;;8.07;4.93;;;17.40;80.70;;;;;;4948392;28;20424;-88
2023/04/10 11:18:49;;;;;;;8.40;4.07;;;17.60;82.00;;;;;;4940417;28;20920;-88
2023/04/10 11:21:19;;;;;;;6.43;3.13;;;17.80;81.20;;;;;;4938516;29;20471;-89
2023/04/10 11:24:05;;;;;;;5.50;3.40;;;18.00;80.30;;;;;;4932530;29;20956;-88
2023/04/10 11:26:40;;;;;;;5.20;3.50;;;18.00;79.40;;;;;;4960514;28;20432;-88
2023/04/10 11:29:26;;;;;;;9.43;5.00;;;17.90;78.20;;;;;;4946348;28;20702;-88
2023/04/10 11:31:56;;;;;;;7.13;3.83;;;17.80;79.70;;;;;;4944439;29;20442;-87
2023/04/10 11:34:22;;;;;;;9.23;5.37;;;17.80;79.50;;;;;;4930616;29;20539;-88
2023/04/10 11:36:47;;;;;;;7.90;4.50;;;17.80;79.60;;;;;;4932968;29;20562;-87
2023/04/10 11:39:17;;;;;;;6.30;4.60;;;17.90;80.40;;;;;;4944408;28;20176;-89
2023/04/10 11:41:54;;;;;;;3.37;3.17;;;18.00;79.70;;;;;;4942884;29;20211;-87
2023/04/10 11:44:34;;;;;;;8.17;5.97;;;18.10;80.20;;;;;;4948400;28;20803;-88
2023/04/10 11:46:59;;;;;;;6.23;3.60;;;18.10;79.50;;;;;;4944984;29;20477;-88
2023/04/10 11:49:28;;;;;;;5.70;3.63;;;18.20;79.90;;;;;;4945406;28;20424;-88
2023/04/10 11:51:54;;;;;;;3.93;3.07;;;18.40;80.00;;;;;;4937788;29;20207;-87
2023/04/10 11:54:20;;;;;;;3.77;2.77;;;18.70;80.50;;;;;;4929823;29;20420;-88
2023/04/10 11:57:00;;;;;;;3.70;3.13;;;18.80;78.50;;;;;;4935627;29;20199;-87
2023/04/10 11:59:26;;;;;;;11.63;4.10;;;19.00;78.10;;;;;;4935913;29;20427;-88
2023/04/10 12:01:55;;;;;;;4.50;3.47;;;18.80;76.30;;;;;;4935229;29;20979;-88
2023/04/10 12:04:22;;;;;;;5.60;3.47;;;18.80;78.00;;;;;;4938343;29;20501;-88
2023/04/10 12:06:50;;;;;;;11.63;4.90;;;18.70;76.40;;;;;;4936440;28;20499;-88
2023/04/10 12:09:18;;;;;;;4.50;2.33;;;18.60;76.90;;;;;;4933780;29;20519;-88
2023/04/10 12:11:52;;;;;;;4.67;2.43;;;18.40;77.10;;;;;;4936150;29;20447;-88
2023/04/10 12:14:18;;;;;;;5.47;4.13;;;18.60;79.30;;;;;;4935812;28;21018;-88
2023/04/10 12:16:45;;;;;;;8.07;3.77;;;18.90;79.40;;;;;;4947398;29;20775;-88
2023/04/10 12:19:11;;;;;;;7.90;3.27;;;19.10;78.30;;;;;;4934977;29;20443;-88
2023/04/10 12:21:38;;;;;;;5.47;3.50;;;19.40;78.50;;;;;;4934140;29;20587;-88
2023/04/10 12:24:04;;;;;;;8.47;3.37;;;19.70;77.20;;;;;;4938988;29;20420;-88
2023/04/10 12:26:30;;;;;;;5.90;3.60;;;19.80;76.40;;;;;;4934634;29;20436;-87
2023/04/10 12:28:58;;;;;;;3.53;2.90;;;19.70;75.90;;;;;;4938332;29;20593;-88
2023/04/10 12:31:35;;;;;;;6.93;3.30;;;19.40;75.60;;;;;;4940465;29;20693;-89
2023/04/10 12:34:05;;;;;;;1.90;1.80;;;19.40;77.40;;;;;;4952729;28;20526;-88
2023/04/10 12:36:33;;;;;;;7.07;2.97;;;19.50;76.60;;;;;;4926019;29;20462;-88
2023/04/10 12:39:01;;;;;;;9.63;3.10;;;19.70;76.40;;;;;;4927641;29;20610;-88
2023/04/10 12:41:32;;;;;;;4.37;2.70;;;20.10;76.30;;;;;;4934605;29;20840;-89
2023/04/10 12:44:09;;;;;;;5.50;3.67;;;20.30;73.70;;;;;;4935593;29;20466;-89
2023/04/10 12:46:35;;;;;;;3.00;2.53;;;20.20;72.70;;;;;;4938612;29;20430;-89
2023/04/10 12:49:12;;;;;;;4.40;2.27;;;20.20;73.90;;;;;;4933908;29;20799;-88
2023/04/10 12:51:50;;;;;;;8.40;3.37;;;20.10;73.00;;;;;;4929174;29;20696;-89
2023/04/10 12:54:35;;;;;;;7.27;3.90;;;19.90;74.20;;;;;;4943233;29;20695;-88
2023/04/10 12:57:02;;;;;;;4.77;2.00;;;20.00;74.60;;;;;;4948127;28;20464;-88
2023/04/10 12:59:29;;;;;;;4.67;2.60;;;20.20;74.60;;;;;;4929467;29;20577;-88